Time;durP1;ratioP1;P1;durP2;ratioP2;P2;SDS_P1;SDS_P2;PMS_P1;PMS_P2;Temp;Humidity;BMP_temperature;BMP_pressure;BME280_temperature;BME280_humidity;BME280_pressure;Samples;Min_cycle;Max_cycle;Signal;HPM_P1;HPM_P2
2021/05/09 00:01:36;;;;;;;2.47;1.42;;;12.30;93.00;;;;;;5014130;28;20452;-73
2021/05/09 00:04:02;;;;;;;3.60;1.60;;;12.30;92.80;;;;;;5019581;28;20025;-73
2021/05/09 00:06:28;;;;;;;2.55;1.10;;;12.20;92.90;;;;;;5027714;28;20473;-72
2021/05/09 00:08:54;;;;;;;2.05;0.95;;;12.40;93.00;;;;;;5014888;28;20029;-72
2021/05/09 00:11:19;;;;;;;4.03;1.08;;;12.30;93.10;;;;;;5017145;28;20034;-73
2021/05/09 00:13:45;;;;;;;3.35;1.10;;;12.20;93.30;;;;;;5018845;28;20053;-73
2021/05/09 00:16:12;;;;;;;2.60;1.20;;;12.20;93.30;;;;;;5020111;28;20116;-72
2021/05/09 00:18:38;;;;;;;2.88;1.05;;;12.10;93.50;;;;;;5019690;28;20040;-73
2021/05/09 00:21:04;;;;;;;6.00;1.33;;;12.10;93.30;;;;;;5019422;28;20112;-72
2021/05/09 00:23:30;;;;;;;2.28;1.30;;;12.10;93.50;;;;;;5015145;28;20052;-73
2021/05/09 00:25:56;;;;;;;2.42;1.15;;;12.10;93.50;;;;;;5017019;28;20029;-72
2021/05/09 00:28:22;;;;;;;3.10;1.33;;;12.10;93.70;;;;;;5015984;28;20100;-73
2021/05/09 00:30:47;;;;;;;4.40;1.65;;;12.00;94.10;;;;;;5018634;28;20165;-73
2021/05/09 00:33:14;;;;;;;2.75;1.23;;;12.00;94.00;;;;;;5022648;28;20041;-72
2021/05/09 00:35:40;;;;;;;2.72;1.13;;;12.00;93.90;;;;;;5015073;28;20164;-73
2021/05/09 00:38:06;;;;;;;2.65;0.90;;;11.90;94.10;;;;;;5023845;28;20022;-72
2021/05/09 00:40:32;;;;;;;2.58;1.13;;;11.90;94.00;;;;;;5014569;28;20048;-73
2021/05/09 00:42:57;;;;;;;1.85;1.10;;;11.90;94.20;;;;;;5016683;28;20022;-73
2021/05/09 00:45:23;;;;;;;2.40;1.08;;;11.90;94.30;;;;;;5014198;28;20038;-73
2021/05/09 00:47:50;;;;;;;3.05;1.40;;;11.80;94.50;;;;;;5028314;28;20550;-72
2021/05/09 00:50:17;;;;;;;3.13;1.00;;;11.80;94.80;;;;;;5014672;28;20376;-73
2021/05/09 00:52:47;;;;;;;4.05;1.15;;;11.70;94.70;;;;;;5014025;28;20115;-73
2021/05/09 00:55:13;;;;;;;4.80;1.35;;;11.80;94.60;;;;;;5022770;28;20443;-72
2021/05/09 00:57:41;;;;;;;2.50;1.30;;;11.70;94.80;;;;;;5014159;28;20539;-72
2021/05/09 01:00:09;;;;;;;7.38;1.52;;;11.60;95.20;;;;;;5019492;28;20033;-73
2021/05/09 01:02:36;;;;;;;3.05;1.17;;;11.60;95.20;;;;;;5014040;28;20452;-72
2021/05/09 01:05:04;;;;;;;3.53;1.55;;;11.60;95.10;;;;;;5014098;28;20028;-73
2021/05/09 01:07:30;;;;;;;4.93;2.08;;;11.60;95.10;;;;;;5014616;28;20025;-72
2021/05/09 01:09:59;;;;;;;2.75;1.27;;;11.60;95.30;;;;;;5017367;28;20037;-72
2021/05/09 01:12:25;;;;;;;3.63;1.50;;;11.70;95.20;;;;;;5019955;28;20032;-72
2021/05/09 01:14:50;;;;;;;2.30;1.27;;;11.70;95.10;;;;;;5013273;28;20045;-71
2021/05/09 01:17:16;;;;;;;2.75;1.30;;;11.70;95.00;;;;;;5020051;28;20022;-73
2021/05/09 01:19:42;;;;;;;3.00;1.42;;;11.70;95.20;;;;;;5014752;28;20049;-73
2021/05/09 01:22:10;;;;;;;3.78;1.23;;;11.60;95.40;;;;;;5020633;28;20361;-73
2021/05/09 01:24:36;;;;;;;4.18;1.05;;;11.60;95.30;;;;;;5022166;28;20030;-73
2021/05/09 01:27:03;;;;;;;3.13;0.98;;;11.60;95.60;;;;;;5013683;28;20022;-72
2021/05/09 01:29:30;;;;;;;2.72;1.27;;;11.60;95.50;;;;;;5015139;28;20021;-72
2021/05/09 01:31:56;;;;;;;5.72;1.30;;;11.60;95.40;;;;;;5015336;28;20061;-72
2021/05/09 01:34:22;;;;;;;2.70;1.00;;;11.70;95.50;;;;;;5018773;28;20068;-73
2021/05/09 01:36:48;;;;;;;3.55;1.13;;;11.60;95.50;;;;;;5017874;28;20030;-73
2021/05/09 01:39:14;;;;;;;3.20;1.20;;;11.60;95.30;;;;;;5017700;28;20030;-73
2021/05/09 01:41:40;;;;;;;2.63;1.10;;;11.60;95.40;;;;;;5015163;28;20022;-73
2021/05/09 01:44:06;;;;;;;1.73;0.82;;;11.60;95.30;;;;;;5013001;28;20030;-72
2021/05/09 01:46:32;;;;;;;3.70;1.67;;;11.70;95.30;;;;;;5020006;28;20350;-73
2021/05/09 01:48:58;;;;;;;3.80;1.33;;;11.70;95.40;;;;;;5020665;28;20425;-72
2021/05/09 01:51:24;;;;;;;2.33;1.27;;;11.50;95.60;;;;;;5015776;28;20034;-73
2021/05/09 01:53:49;;;;;;;3.38;1.38;;;11.40;95.80;;;;;;5016470;28;20042;-73
2021/05/09 01:56:15;;;;;;;3.80;1.50;;;11.60;95.70;;;;;;5012870;28;20098;-74
2021/05/09 01:58:42;;;;;;;2.38;1.00;;;11.50;95.80;;;;;;5013961;28;20029;-73
2021/05/09 02:01:10;;;;;;;3.22;1.60;;;11.40;96.40;;;;;;5013613;28;20427;-72
2021/05/09 02:03:36;;;;;;;3.67;1.83;;;11.20;97.30;;;;;;5019577;28;20033;-71
2021/05/09 02:06:03;;;;;;;3.17;1.20;;;11.10;97.90;;;;;;5012360;28;20025;-73
2021/05/09 02:08:29;;;;;;;4.82;1.40;;;11.10;97.80;;;;;;5013273;28;20031;-73
2021/05/09 02:10:54;;;;;;;6.30;1.55;;;11.00;98.10;;;;;;5018240;28;20068;-72
2021/05/09 02:13:20;;;;;;;2.33;0.95;;;11.10;97.90;;;;;;5014593;28;20049;-73
2021/05/09 02:15:46;;;;;;;3.10;1.38;;;11.20;97.70;;;;;;5017194;28;20071;-73
2021/05/09 02:18:11;;;;;;;2.50;1.30;;;11.10;97.50;;;;;;5014387;28;20065;-73
2021/05/09 02:20:37;;;;;;;2.90;1.30;;;11.00;97.80;;;;;;5019049;28;20038;-73
2021/05/09 02:23:03;;;;;;;3.05;1.15;;;11.10;97.70;;;;;;5026510;28;20031;-73
2021/05/09 02:25:29;;;;;;;3.90;1.45;;;11.10;97.60;;;;;;5018604;28;20365;-74
2021/05/09 02:27:55;;;;;;;3.08;1.20;;;11.10;97.60;;;;;;5012828;28;20026;-73
2021/05/09 02:30:21;;;;;;;3.53;1.90;;;11.10;97.60;;;;;;5012458;28;20403;-74
2021/05/09 02:32:47;;;;;;;3.28;1.88;;;11.00;97.90;;;;;;5012818;28;20030;-74
2021/05/09 02:35:12;;;;;;;6.70;1.55;;;11.20;97.80;;;;;;5019288;28;20025;-73
2021/05/09 02:37:38;;;;;;;3.45;1.40;;;11.30;97.90;;;;;;5019025;28;20032;-74
2021/05/09 02:40:06;;;;;;;7.38;1.55;;;11.30;98.10;;;;;;5025537;28;20111;-73
2021/05/09 02:42:31;;;;;;;3.67;1.20;;;11.40;98.00;;;;;;5013472;28;20026;-74
2021/05/09 02:44:57;;;;;;;3.08;1.65;;;11.30;97.90;;;;;;5015577;28;20108;-74
2021/05/09 02:47:29;;;;;;;2.90;1.50;;;11.20;98.20;;;;;;5018393;28;20096;-74
2021/05/09 02:49:56;;;;;;;4.20;1.23;;;11.20;98.20;;;;;;5014777;28;20025;-74
2021/05/09 02:52:22;;;;;;;2.58;1.27;;;11.20;97.80;;;;;;5011955;28;20112;-74
2021/05/09 02:54:48;;;;;;;4.20;1.23;;;11.00;98.40;;;;;;5012368;28;20112;-74
2021/05/09 02:57:14;;;;;;;3.92;1.52;;;11.00;98.50;;;;;;5018049;28;20025;-73
2021/05/09 02:59:39;;;;;;;3.83;1.60;;;10.90;98.70;;;;;;5016692;28;20101;-74
2021/05/09 03:02:05;;;;;;;3.05;1.33;;;11.00;98.50;;;;;;5014527;28;20627;-74
2021/05/09 03:04:31;;;;;;;2.88;1.27;;;10.90;99.00;;;;;;5011246;28;20061;-74
2021/05/09 03:06:56;;;;;;;4.45;1.42;;;10.80;99.10;;;;;;5007826;28;20037;-74
2021/05/09 03:09:22;;;;;;;4.30;1.20;;;11.00;98.90;;;;;;5004850;28;20029;-74
2021/05/09 03:11:48;;;;;;;6.35;1.50;;;10.90;98.60;;;;;;5010779;28;20041;-74
2021/05/09 03:14:14;;;;;;;5.53;1.40;;;11.10;98.30;;;;;;5003891;28;20050;-74
2021/05/09 03:16:39;;;;;;;8.48;1.90;;;11.10;98.30;;;;;;5011058;28;20432;-74
2021/05/09 03:19:06;;;;;;;3.55;1.80;;;11.10;98.40;;;;;;5004024;28;20507;-74
2021/05/09 03:21:31;;;;;;;5.05;1.42;;;11.00;98.80;;;;;;5013194;28;20033;-73
2021/05/09 03:23:57;;;;;;;6.28;1.40;;;11.00;99.10;;;;;;5007640;28;20084;-74
2021/05/09 03:26:22;;;;;;;3.17;1.50;;;10.80;99.40;;;;;;5005467;28;20498;-74
2021/05/09 03:28:48;;;;;;;6.30;1.45;;;10.80;99.50;;;;;;5004930;28;20037;-74
2021/05/09 03:31:14;;;;;;;2.95;1.50;;;10.80;99.40;;;;;;5006389;28;20029;-74
2021/05/09 03:33:40;;;;;;;4.78;1.35;;;10.90;99.30;;;;;;5004611;28;20489;-74
2021/05/09 03:36:06;;;;;;;3.13;1.25;;;11.00;99.30;;;;;;5003424;28;20513;-74
2021/05/09 03:38:31;;;;;;;5.15;1.60;;;11.10;99.00;;;;;;5010573;28;20053;-74
2021/05/09 03:40:57;;;;;;;3.08;1.60;;;11.00;99.30;;;;;;5009901;28;20429;-74
2021/05/09 03:43:23;;;;;;;2.03;1.17;;;10.90;99.30;;;;;;5009544;28;20036;-73
2021/05/09 03:45:48;;;;;;;4.25;1.42;;;10.90;99.20;;;;;;5015751;28;20022;-74
2021/05/09 03:48:14;;;;;;;3.67;1.17;;;10.90;99.20;;;;;;5008629;28;20550;-74
2021/05/09 03:50:40;;;;;;;5.32;1.40;;;10.90;99.40;;;;;;5004254;28;20104;-74
2021/05/09 03:53:06;;;;;;;3.65;1.90;;;10.80;99.80;;;;;;5005056;28;20500;-73
2021/05/09 03:55:32;;;;;;;3.45;1.50;;;10.80;99.50;;;;;;5003719;28;20024;-73
2021/05/09 03:57:57;;;;;;;3.88;1.50;;;10.80;99.50;;;;;;5006837;28;20032;-74
2021/05/09 04:00:24;;;;;;;4.40;2.03;;;10.80;99.40;;;;;;5011230;28;20025;-74
2021/05/09 04:02:49;;;;;;;3.78;1.50;;;10.80;99.50;;;;;;5010405;28;20076;-74
2021/05/09 04:05:15;;;;;;;4.78;1.48;;;10.70;99.90;;;;;;5004039;28;20021;-74
2021/05/09 04:07:41;;;;;;;2.92;1.75;;;10.60;99.90;;;;;;5008649;28;20080;-74
2021/05/09 04:10:07;;;;;;;3.60;1.50;;;10.60;99.90;;;;;;5005023;28;20471;-74
2021/05/09 04:12:33;;;;;;;3.63;2.03;;;10.70;99.90;;;;;;5011208;28;20053;-74
2021/05/09 04:14:58;;;;;;;2.10;1.30;;;10.70;99.90;;;;;;5007284;28;20081;-74
2021/05/09 04:17:24;;;;;;;3.60;1.70;;;10.80;99.80;;;;;;5010098;28;20026;-74
2021/05/09 04:19:50;;;;;;;2.63;1.33;;;10.80;99.60;;;;;;5003981;28;20037;-74
2021/05/09 04:22:17;;;;;;;3.90;1.30;;;10.80;99.90;;;;;;5013307;28;20033;-74
2021/05/09 04:24:42;;;;;;;3.38;1.42;;;10.90;99.30;;;;;;5007071;28;20033;-74
2021/05/09 04:27:08;;;;;;;3.33;1.35;;;10.80;99.90;;;;;;5005069;28;20400;-73
2021/05/09 04:29:34;;;;;;;2.40;1.33;;;10.70;99.90;;;;;;5010568;28;20492;-74
2021/05/09 04:32:00;;;;;;;3.25;1.60;;;10.90;99.80;;;;;;5002964;28;20022;-74
2021/05/09 04:34:26;;;;;;;3.63;1.83;;;11.00;99.20;;;;;;5006618;28;20546;-74
2021/05/09 04:36:51;;;;;;;7.03;1.52;;;11.10;99.00;;;;;;5007479;28;20105;-74
2021/05/09 04:39:17;;;;;;;5.60;1.50;;;11.10;99.30;;;;;;5006919;28;20026;-74
2021/05/09 04:41:43;;;;;;;3.25;1.60;;;10.90;99.90;;;;;;5004678;28;20034;-74
2021/05/09 04:44:08;;;;;;;3.05;1.55;;;10.90;99.70;;;;;;5003405;28;20030;-74
2021/05/09 04:46:34;;;;;;;3.17;1.50;;;10.90;99.60;;;;;;5006346;28;20041;-74
2021/05/09 04:49:00;;;;;;;4.68;1.65;;;10.90;99.70;;;;;;5006602;28;20057;-74
2021/05/09 04:51:25;;;;;;;2.97;1.30;;;11.00;99.50;;;;;;5013240;28;20036;-74
2021/05/09 04:53:52;;;;;;;5.68;1.70;;;11.00;99.80;;;;;;5007116;28;20038;-74
2021/05/09 04:56:18;;;;;;;4.70;1.50;;;11.10;99.40;;;;;;5016075;28;20026;-73
2021/05/09 04:58:44;;;;;;;4.22;1.77;;;11.00;99.90;;;;;;5012746;28;20084;-74
2021/05/09 05:01:12;;;;;;;3.03;1.30;;;10.90;99.90;;;;;;5012711;28;20480;-74
2021/05/09 05:03:38;;;;;;;4.38;1.55;;;10.80;99.90;;;;;;5007141;28;20017;-74
2021/05/09 05:06:04;;;;;;;5.72;1.40;;;10.70;99.90;;;;;;5010763;28;20026;-74
2021/05/09 05:08:32;;;;;;;3.05;1.40;;;10.50;99.90;;;;;;5020679;28;20040;-74
2021/05/09 05:10:59;;;;;;;3.55;1.27;;;10.50;99.90;;;;;;5006487;28;20026;-74
2021/05/09 05:13:25;;;;;;;2.97;1.30;;;10.40;99.90;;;;;;5008615;28;20042;-74
2021/05/09 05:15:53;;;;;;;2.70;1.30;;;10.30;99.90;;;;;;5012108;28;20411;-74
2021/05/09 05:18:20;;;;;;;4.10;1.45;;;10.60;99.90;;;;;;5009594;28;20017;-74
2021/05/09 05:20:47;;;;;;;4.72;1.52;;;10.90;99.90;;;;;;5010398;28;20711;-72
2021/05/09 05:23:15;;;;;;;1.85;0.93;;;10.90;99.90;;;;;;5010635;28;20025;-74
2021/05/09 05:25:42;;;;;;;3.50;1.40;;;11.00;99.90;;;;;;5006830;28;20088;-74
2021/05/09 05:28:07;;;;;;;2.72;1.10;;;11.00;99.90;;;;;;5014787;28;20029;-73
2021/05/09 05:30:34;;;;;;;4.15;1.40;;;11.00;99.90;;;;;;5011170;28;20436;-74
2021/05/09 05:33:00;;;;;;;2.72;1.23;;;11.00;99.90;;;;;;5011813;28;20031;-74
2021/05/09 05:35:27;;;;;;;3.67;1.25;;;11.00;99.90;;;;;;5020935;28;20021;-74
2021/05/09 05:37:56;;;;;;;3.88;1.40;;;11.10;99.90;;;;;;5012516;28;20034;-73
2021/05/09 05:40:23;;;;;;;2.42;1.00;;;11.00;99.90;;;;;;5007115;28;20597;-74
2021/05/09 05:42:50;;;;;;;2.70;1.38;;;10.90;99.90;;;;;;5006527;28;20420;-74
2021/05/09 05:45:16;;;;;;;3.40;1.38;;;10.90;99.90;;;;;;5006002;28;20022;-74
2021/05/09 05:47:42;;;;;;;4.07;1.40;;;10.90;99.90;;;;;;5011020;28;20033;-74
2021/05/09 05:50:09;;;;;;;2.42;1.23;;;10.80;99.90;;;;;;5016782;28;20560;-74
2021/05/09 05:52:34;;;;;;;2.35;1.35;;;10.90;99.90;;;;;;5008751;28;20034;-74
2021/05/09 05:55:00;;;;;;;2.65;1.20;;;10.90;99.90;;;;;;5005578;28;20068;-73
2021/05/09 05:57:26;;;;;;;2.75;1.13;;;11.00;99.90;;;;;;5010357;28;20033;-74
2021/05/09 05:59:52;;;;;;;3.08;1.30;;;11.10;99.90;;;;;;5013297;28;20030;-74
2021/05/09 06:02:18;;;;;;;4.60;1.63;;;11.20;99.90;;;;;;5010210;28;20444;-74
2021/05/09 06:04:43;;;;;;;6.38;1.83;;;11.30;99.90;;;;;;5005679;28;20069;-74
2021/05/09 06:07:12;;;;;;;3.55;1.25;;;11.50;99.90;;;;;;5004833;28;20057;-74
2021/05/09 06:09:38;;;;;;;3.63;1.40;;;11.60;99.90;;;;;;5012897;28;20069;-74
2021/05/09 06:12:04;;;;;;;4.72;1.60;;;11.80;99.90;;;;;;5005695;28;20026;-74
2021/05/09 06:14:30;;;;;;;2.63;1.15;;;11.90;99.90;;;;;;5005350;28;20046;-74
2021/05/09 06:16:56;;;;;;;3.00;1.20;;;12.10;99.90;;;;;;5011999;28;20032;-74
2021/05/09 06:19:22;;;;;;;2.85;1.48;;;12.20;99.90;;;;;;5007303;28;20032;-74
2021/05/09 06:21:47;;;;;;;2.47;1.10;;;12.30;99.70;;;;;;5005552;28;20129;-74
2021/05/09 06:24:13;;;;;;;22.73;5.40;;;12.50;99.40;;;;;;5011393;28;20087;-74
2021/05/09 06:26:39;;;;;;;37.38;7.70;;;12.80;99.00;;;;;;5011778;28;20049;-74
2021/05/09 06:29:05;;;;;;;7.82;2.97;;;12.90;99.00;;;;;;5005255;28;20037;-74
2021/05/09 06:31:31;;;;;;;5.43;1.52;;;13.00;98.20;;;;;;5010405;28;20061;-74
2021/05/09 06:33:56;;;;;;;4.35;1.38;;;13.30;96.80;;;;;;5011866;28;20137;-73
2021/05/09 06:36:22;;;;;;;3.13;1.10;;;13.50;96.60;;;;;;5008206;28;20461;-74
2021/05/09 06:38:48;;;;;;;2.50;1.02;;;13.60;96.50;;;;;;5009098;28;20029;-74
2021/05/09 06:41:14;;;;;;;2.85;1.17;;;13.50;96.10;;;;;;5013094;28;20525;-74
2021/05/09 06:43:40;;;;;;;2.92;1.10;;;13.60;95.90;;;;;;5005061;28;20609;-73
2021/05/09 06:46:06;;;;;;;4.72;1.42;;;13.80;95.60;;;;;;5012310;28;20083;-73
2021/05/09 06:48:32;;;;;;;4.18;1.20;;;13.90;95.10;;;;;;5012533;28;20105;-74
2021/05/09 06:50:58;;;;;;;2.42;1.20;;;14.30;94.30;;;;;;5014544;28;20028;-75
2021/05/09 06:53:24;;;;;;;3.15;1.00;;;14.60;94.30;;;;;;5016093;28;20034;-74
2021/05/09 06:55:51;;;;;;;3.00;1.02;;;15.00;94.10;;;;;;5009271;28;20056;-73
2021/05/09 06:58:20;;;;;;;2.85;1.33;;;14.90;93.30;;;;;;5007849;28;20540;-73
2021/05/09 07:00:46;;;;;;;3.10;1.27;;;14.90;93.20;;;;;;5009588;28;20040;-74
2021/05/09 07:03:12;;;;;;;2.53;0.93;;;14.90;93.20;;;;;;5015415;28;20026;-74
2021/05/09 07:05:37;;;;;;;3.25;1.08;;;15.00;93.70;;;;;;5006239;28;20405;-74
2021/05/09 07:08:04;;;;;;;2.17;1.17;;;15.20;93.30;;;;;;5010262;28;20060;-74
2021/05/09 07:10:33;;;;;;;5.65;1.17;;;15.40;93.40;;;;;;5009697;28;20128;-74
2021/05/09 07:12:58;;;;;;;2.88;1.25;;;16.30;92.90;;;;;;5003885;28;20018;-74
2021/05/09 07:15:30;;;;;;;2.72;1.13;;;17.20;91.90;;;;;;5009746;28;20048;-74
2021/05/09 07:20:39;;;;;;;3.83;1.08;;;19.10;88.30;;;;;;5011766;28;20033;-74
2021/05/09 07:23:06;;;;;;;2.28;0.98;;;20.30;85.00;;;;;;5006192;28;20026;-74
2021/05/09 07:25:32;;;;;;;2.53;1.20;;;21.30;82.40;;;;;;5015203;28;20032;-74
2021/05/09 07:28:14;;;;;;;3.65;1.27;;;21.50;82.10;;;;;;5010539;28;20021;-74
2021/05/09 07:30:43;;;;;;;3.00;1.10;;;21.40;80.40;;;;;;5010020;28;20026;-74
2021/05/09 07:33:09;;;;;;;3.20;1.50;;;21.80;79.60;;;;;;5009196;28;20017;-74
2021/05/09 07:35:36;;;;;;;3.28;1.00;;;22.20;78.70;;;;;;5003314;28;20033;-74
2021/05/09 07:38:03;;;;;;;4.32;1.02;;;22.60;77.80;;;;;;5006657;28;20032;-74
2021/05/09 07:40:29;;;;;;;3.45;1.13;;;22.70;76.80;;;;;;5010074;28;20034;-74
2021/05/09 07:42:55;;;;;;;2.17;1.25;;;22.40;76.30;;;;;;5010506;28;20370;-74
2021/05/09 07:45:22;;;;;;;4.55;1.20;;;21.80;77.00;;;;;;5004849;28;20091;-74
2021/05/09 07:47:49;;;;;;;4.13;1.10;;;21.90;76.40;;;;;;5008387;28;20878;-74
2021/05/09 07:50:16;;;;;;;3.78;1.00;;;21.90;76.20;;;;;;5009597;28;20033;-74
2021/05/09 07:52:49;;;;;;;3.08;1.38;;;20.10;79.00;;;;;;5009659;28;20496;-74
2021/05/09 07:55:16;;;;;;;4.10;1.20;;;18.20;81.70;;;;;;5002718;28;20033;-74
2021/05/09 07:57:43;;;;;;;2.17;1.10;;;17.30;83.90;;;;;;5005586;28;20108;-74
2021/05/09 08:00:13;;;;;;;3.42;1.38;;;16.70;84.40;;;;;;4993772;28;20064;-74
2021/05/09 08:02:42;;;;;;;2.80;1.10;;;16.60;87.70;;;;;;4988024;28;20026;-77
2021/05/09 08:05:09;;;;;;;3.38;1.25;;;16.50;87.50;;;;;;4987902;28;20041;-78
2021/05/09 08:07:34;;;;;;;1.85;0.77;;;16.50;87.40;;;;;;4985708;28;20232;-77
2021/05/09 08:10:00;;;;;;;5.50;1.60;;;17.60;85.20;;;;;;4996758;28;20143;-80
2021/05/09 08:12:26;;;;;;;6.18;2.00;;;19.20;83.80;;;;;;4994168;28;20546;-75
2021/05/09 08:14:51;;;;;;;2.70;1.27;;;20.10;81.30;;;;;;4992462;28;20042;-76
2021/05/09 08:17:17;;;;;;;2.75;1.40;;;20.30;78.80;;;;;;4998183;28;20141;-75
2021/05/09 08:19:43;;;;;;;5.78;1.40;;;20.70;79.60;;;;;;4993687;28;20088;-75
2021/05/09 08:22:09;;;;;;;3.70;1.50;;;20.30;79.20;;;;;;4989149;28;20161;-74
2021/05/09 08:24:35;;;;;;;7.90;2.00;;;20.20;78.80;;;;;;4994457;28;20044;-75
2021/05/09 08:27:01;;;;;;;4.63;0.98;;;20.20;79.40;;;;;;4992560;28;20042;-76
2021/05/09 08:29:27;;;;;;;4.20;1.10;;;19.90;81.40;;;;;;5000041;28;20488;-76
2021/05/09 08:31:52;;;;;;;3.95;1.23;;;19.10;81.20;;;;;;4994140;28;20066;-78
2021/05/09 08:34:18;;;;;;;2.35;1.08;;;18.90;82.80;;;;;;4993549;28;20068;-75
2021/05/09 08:36:44;;;;;;;2.40;0.95;;;18.50;81.00;;;;;;4992249;28;20033;-76
2021/05/09 08:39:10;;;;;;;4.15;1.20;;;18.20;82.00;;;;;;4995506;28;20034;-76
2021/05/09 08:41:40;;;;;;;5.22;1.63;;;18.10;82.80;;;;;;4999301;28;20103;-76
2021/05/09 08:44:10;;;;;;;5.70;1.25;;;18.10;83.20;;;;;;4994951;28;20072;-76
2021/05/09 08:46:37;;;;;;;2.97;1.38;;;18.40;84.40;;;;;;4995182;28;20802;-74
2021/05/09 08:49:04;;;;;;;3.00;1.20;;;18.40;85.60;;;;;;4996207;28;20029;-77
2021/05/09 08:51:31;;;;;;;5.10;1.17;;;18.00;86.50;;;;;;4999797;28;20122;-77
2021/05/09 08:53:57;;;;;;;2.25;1.10;;;18.20;85.40;;;;;;5008488;28;20384;-82
2021/05/09 08:56:25;;;;;;;3.25;1.40;;;18.10;85.80;;;;;;5012606;28;20037;-75
2021/05/09 08:58:50;;;;;;;4.85;1.55;;;17.70;85.60;;;;;;5014344;28;20182;-75
2021/05/09 09:01:16;;;;;;;6.78;1.50;;;18.30;85.80;;;;;;5012303;28;20104;-75
2021/05/09 09:03:42;;;;;;;4.70;1.25;;;18.30;86.50;;;;;;5014122;28;20427;-75
2021/05/09 09:06:15;;;;;;;3.05;1.48;;;18.20;85.10;;;;;;5021872;28;20108;-75
2021/05/09 09:08:52;;;;;;;9.33;2.43;;;18.00;86.00;;;;;;5001922;28;20033;-74
2021/05/09 09:11:28;;;;;;;7.38;1.63;;;18.10;87.40;;;;;;5005785;28;20627;-75
2021/05/09 09:14:11;;;;;;;11.43;2.47;;;18.40;89.10;;;;;;5000364;28;20056;-75
2021/05/09 09:16:38;;;;;;;3.38;1.48;;;18.90;87.40;;;;;;4994215;28;20392;-76
2021/05/09 09:19:14;;;;;;;4.75;1.50;;;19.00;85.40;;;;;;4992535;28;20037;-75
2021/05/09 09:21:43;;;;;;;8.93;1.48;;;19.20;85.60;;;;;;4995351;28;20109;-76
2021/05/09 09:24:11;;;;;;;10.93;2.20;;;19.30;84.40;;;;;;4996172;28;20085;-75
2021/05/09 09:26:47;;;;;;;4.15;1.50;;;19.10;83.90;;;;;;4999786;28;20033;-76
2021/05/09 09:29:33;;;;;;;6.07;1.33;;;18.90;83.70;;;;;;4993732;28;20109;-75
2021/05/09 09:32:03;;;;;;;7.15;1.73;;;19.20;84.30;;;;;;4995541;28;20030;-76
2021/05/09 09:34:42;;;;;;;6.13;1.80;;;19.00;85.10;;;;;;4992141;28;20427;-75
2021/05/09 09:37:10;;;;;;;4.75;1.30;;;19.50;85.10;;;;;;5007229;28;20030;-75
2021/05/09 09:39:59;;;;;;;2.95;1.23;;;19.90;84.40;;;;;;5002558;28;20719;-76
2021/05/09 09:42:35;;;;;;;3.08;1.42;;;19.90;83.70;;;;;;4998141;28;20069;-75
2021/05/09 09:45:24;;;;;;;4.20;1.67;;;19.80;82.80;;;;;;4993668;28;20037;-76
2021/05/09 09:48:02;;;;;;;6.05;1.73;;;19.70;83.70;;;;;;4993433;28;20026;-75
2021/05/09 09:50:42;;;;;;;5.63;1.52;;;19.50;84.20;;;;;;4991635;28;20022;-75
2021/05/09 09:53:26;;;;;;;14.10;1.52;;;19.60;83.80;;;;;;4992779;28;20057;-75
2021/05/09 09:56:02;;;;;;;;;;;19.80;85.10;;;;;;5001201;28;20038;-76
2021/05/09 09:59:05;;;;;;;5.90;1.65;;;20.00;84.10;;;;;;4998448;28;20778;-75
2021/05/09 10:01:36;;;;;;;4.28;1.25;;;19.80;85.10;;;;;;4995106;28;20025;-74
2021/05/09 10:04:07;;;;;;;5.43;1.45;;;20.10;85.30;;;;;;4990172;28;21123;-75
2021/05/09 10:06:34;;;;;;;5.28;1.80;;;20.30;84.30;;;;;;4997740;28;20476;-77
2021/05/09 10:09:00;;;;;;;6.55;1.90;;;20.20;82.90;;;;;;4992299;28;20022;-75
2021/05/09 10:11:27;;;;;;;3.83;1.52;;;20.30;83.90;;;;;;4992022;28;20511;-74
2021/05/09 10:13:53;;;;;;;3.05;1.23;;;20.30;82.50;;;;;;4994926;28;20120;-76
2021/05/09 10:16:21;;;;;;;3.50;1.30;;;19.90;81.90;;;;;;4997623;28;20030;-76
2021/05/09 10:18:50;;;;;;;5.70;1.52;;;20.30;84.60;;;;;;4992540;28;20034;-75
2021/05/09 10:21:16;;;;;;;4.38;1.45;;;20.70;84.80;;;;;;4989591;28;20121;-74
2021/05/09 10:24:08;;;;;;;2.90;1.23;;;20.60;82.20;;;;;;4991019;28;20151;-76
2021/05/09 10:26:43;;;;;;;2.50;1.10;;;20.50;83.40;;;;;;4992069;28;20036;-76
2021/05/09 10:29:29;;;;;;;3.92;1.55;;;20.80;84.00;;;;;;4994497;28;20025;-75
2021/05/09 10:31:54;;;;;;;3.45;1.20;;;20.30;81.40;;;;;;4991309;28;20044;-77
2021/05/09 10:34:58;;;;;;;4.57;1.25;;;20.60;84.60;;;;;;4991094;28;20405;-75
2021/05/09 10:37:50;;;;;;;7.45;1.85;;;21.00;82.60;;;;;;4991235;28;20091;-74
2021/05/09 10:40:23;;;;;;;4.65;1.65;;;21.10;81.60;;;;;;4994365;28;20080;-75
2021/05/09 10:43:09;;;;;;;3.15;1.38;;;21.10;82.90;;;;;;5000576;28;20060;-75
2021/05/09 10:45:41;;;;;;;6.53;1.58;;;20.50;80.80;;;;;;5005278;28;20028;-75
2021/05/09 10:48:16;;;;;;;7.00;1.40;;;20.40;81.30;;;;;;5018416;28;20080;-75
2021/05/09 10:50:51;;;;;;;5.15;1.40;;;20.60;81.00;;;;;;5013368;28;20022;-73
2021/05/09 10:53:38;;;;;;;2.13;0.95;;;21.10;81.90;;;;;;4989909;28;20681;-76
2021/05/09 10:56:05;;;;;;;5.75;1.33;;;20.80;81.50;;;;;;4995596;28;20482;-77
2021/05/09 10:58:49;;;;;;;4.53;1.40;;;20.90;81.70;;;;;;4992162;28;20493;-74
2021/05/09 11:01:23;;;;;;;5.60;1.38;;;21.30;82.00;;;;;;4997142;28;20361;-72
2021/05/09 11:04:00;;;;;;;5.05;1.52;;;21.40;80.60;;;;;;4992913;28;20025;-74
2021/05/09 11:06:26;;;;;;;8.75;1.60;;;21.70;80.60;;;;;;4991070;28;20030;-75
2021/05/09 11:08:55;;;;;;;4.20;1.30;;;21.70;81.40;;;;;;4993291;28;20087;-77
2021/05/09 11:11:31;;;;;;;3.05;0.80;;;21.60;80.50;;;;;;4992256;28;21141;-77
2021/05/09 11:14:05;;;;;;;6.45;1.80;;;21.70;81.20;;;;;;4992662;28;20499;-77
2021/05/09 11:16:44;;;;;;;4.88;1.52;;;21.80;81.20;;;;;;4988679;28;20562;-75
2021/05/09 11:19:16;;;;;;;5.10;1.73;;;21.90;81.20;;;;;;4990143;28;20049;-74
2021/05/09 11:21:54;;;;;;;5.43;1.63;;;22.30;80.50;;;;;;4990015;28;20080;-76
2021/05/09 11:24:23;;;;;;;6.40;1.77;;;22.50;82.20;;;;;;4990678;28;20026;-76
2021/05/09 11:26:55;;;;;;;2.67;1.20;;;22.80;81.00;;;;;;4991968;28;20025;-74
2021/05/09 11:29:22;;;;;;;5.80;1.65;;;23.00;81.50;;;;;;4990124;28;20065;-76
2021/05/09 11:31:49;;;;;;;3.85;1.20;;;23.20;80.70;;;;;;4988797;28;20041;-73
2021/05/09 11:34:16;;;;;;;3.03;1.40;;;23.10;79.70;;;;;;4993346;28;20099;-73
2021/05/09 11:36:46;;;;;;;3.53;1.13;;;23.00;81.40;;;;;;4989599;28;20018;-74
2021/05/09 11:39:12;;;;;;;4.63;1.40;;;23.00;80.50;;;;;;4990158;28;20037;-73
2021/05/09 11:41:54;;;;;;;3.78;1.23;;;23.10;80.30;;;;;;4989475;28;21547;-73
2021/05/09 11:44:21;;;;;;;7.07;1.17;;;23.20;80.20;;;;;;4991775;28;20034;-73
2021/05/09 11:46:47;;;;;;;5.68;1.63;;;23.30;81.50;;;;;;4988319;28;20029;-73
2021/05/09 11:49:22;;;;;;;5.82;1.38;;;23.40;79.70;;;;;;4993593;28;20776;-71
2021/05/09 11:51:53;;;;;;;4.15;1.20;;;23.10;79.20;;;;;;4991081;28;20076;-74
2021/05/09 11:54:24;;;;;;;3.25;1.45;;;23.30;80.00;;;;;;4994758;28;20128;-73
2021/05/09 11:56:57;;;;;;;3.08;1.33;;;23.20;79.80;;;;;;4992393;28;20028;-73
2021/05/09 11:59:38;;;;;;;5.07;1.00;;;23.20;81.70;;;;;;4994586;28;20040;-72
2021/05/09 12:02:20;;;;;;;3.85;1.20;;;23.30;80.50;;;;;;4991801;28;20042;-73
2021/05/09 12:05:01;;;;;;;3.75;1.67;;;23.30;83.10;;;;;;4995019;28;20022;-73
2021/05/09 12:07:32;;;;;;;4.07;1.33;;;23.20;81.30;;;;;;4995907;28;20044;-74
2021/05/09 12:10:07;;;;;;;3.70;1.45;;;23.30;80.50;;;;;;4996386;28;20033;-74
2021/05/09 12:12:35;;;;;;;3.83;1.10;;;23.20;80.20;;;;;;4992075;28;20792;-73
2021/05/09 12:15:18;;;;;;;6.00;1.10;;;23.40;81.70;;;;;;4990355;28;21490;-73
2021/05/09 12:17:52;;;;;;;4.00;1.20;;;23.50;79.50;;;;;;4996368;28;20503;-73
2021/05/09 12:20:26;;;;;;;7.07;1.70;;;23.60;81.20;;;;;;4991718;28;20593;-73
2021/05/09 12:22:53;;;;;;;4.40;1.40;;;23.50;79.00;;;;;;4993514;28;20488;-73
2021/05/09 12:25:37;;;;;;;5.40;1.33;;;23.50;79.50;;;;;;4994962;28;20026;-73
2021/05/09 12:28:31;;;;;;;4.45;1.80;;;23.80;80.50;;;;;;4994089;28;20029;-73
2021/05/09 12:31:12;;;;;;;6.68;1.65;;;23.70;80.30;;;;;;4989777;28;20021;-73
2021/05/09 12:33:38;;;;;;;3.22;1.20;;;23.80;78.10;;;;;;4998814;28;20048;-73
2021/05/09 12:36:12;;;;;;;5.97;1.20;;;23.70;78.30;;;;;;4992081;28;20069;-73
2021/05/09 12:38:37;;;;;;;;;;;23.80;79.70;;;;;;4999905;28;20108;-73
2021/05/09 12:41:08;;;;;;;3.08;0.95;;;24.00;80.40;;;;;;4995267;28;19913;-74
2021/05/09 12:43:44;;;;;;;4.05;1.60;;;24.10;78.70;;;;;;4995290;28;20041;-73
2021/05/09 12:46:45;;;;;;;7.65;1.40;;;24.20;80.60;;;;;;4990681;28;20099;-73
2021/05/09 12:49:12;;;;;;;4.75;1.50;;;24.20;79.50;;;;;;4997336;28;20040;-73
2021/05/09 12:51:58;;;;;;;4.63;1.30;;;24.20;78.60;;;;;;4990765;28;20030;-72
2021/05/09 12:54:32;;;;;;;5.35;1.67;;;24.60;81.60;;;;;;4992489;28;20045;-73
2021/05/09 12:57:21;;;;;;;29.30;6.40;;;24.40;76.80;;;;;;4996103;28;20025;-73
2021/05/09 12:59:49;;;;;;;5.25;1.80;;;24.40;78.40;;;;;;5002792;28;20033;-73